createdAt,value
2022-12-27T08:28:58.159Z,3.47
2022-12-27T08:31:26.557Z,4.77
2022-12-27T08:33:58.421Z,4.33
2022-12-27T08:39:15.728Z,10.17
2022-12-27T08:41:44.075Z,11.03
2022-12-27T08:44:14.604Z,5.10
2022-12-27T08:46:43.361Z,5.27
2022-12-27T08:49:11.710Z,4.83
2022-12-27T08:51:41.426Z,4.10
2022-12-27T08:54:10.200Z,3.77
2022-12-27T08:56:38.602Z,4.33
2022-12-27T08:59:06.941Z,4.67
2022-12-27T09:01:36.941Z,4.43
2022-12-27T09:04:05.696Z,4.43
2022-12-27T09:06:34.098Z,4.30
2022-12-27T09:09:02.442Z,4.60
2022-12-27T09:11:33.448Z,4.63
2022-12-27T09:14:03.480Z,3.93
2022-12-27T09:16:34.265Z,4.77
2022-12-27T09:19:05.495Z,4.30
2022-12-27T09:21:35.649Z,4.70
2022-12-27T09:24:04.646Z,4.43
2022-12-27T09:26:33.383Z,4.30
2022-12-27T09:29:02.220Z,4.70
2022-12-27T09:31:31.368Z,4.93
2022-12-27T09:34:00.233Z,4.40
2022-12-27T09:36:31.333Z,4.30
2022-12-27T09:39:00.525Z,4.90
2022-12-27T09:44:48.437Z,5.50
2022-12-27T09:47:23.392Z,3.83
2022-12-27T09:49:57.125Z,6.20
2022-12-27T09:52:34.407Z,4.90
2022-12-27T09:55:11.041Z,5.23
2022-12-27T09:57:42.729Z,5.43
2022-12-27T10:00:17.813Z,5.03
2022-12-27T10:02:46.964Z,4.90
2022-12-27T10:05:23.178Z,4.73
2022-12-27T10:08:07.982Z,5.57
2022-12-27T10:10:43.758Z,5.37
2022-12-27T10:13:39.588Z,4.37
2022-12-27T10:16:21.237Z,4.03
2022-12-27T10:19:03.355Z,3.83
2022-12-27T10:21:36.069Z,4.03
2022-12-27T10:24:19.731Z,4.13
2022-12-27T10:26:48.179Z,4.57
2022-12-27T10:29:22.326Z,4.33
2022-12-27T10:31:51.100Z,4.87
2022-12-27T10:34:24.691Z,4.30
2022-12-27T10:36:54.545Z,4.60
2022-12-27T10:39:32.260Z,4.27
2022-12-27T10:42:09.301Z,4.77
2022-12-27T10:44:37.859Z,3.90
2022-12-27T10:47:06.975Z,4.80
2022-12-27T10:49:36.492Z,4.40
2022-12-27T10:52:10.280Z,4.07
2022-12-27T10:54:52.822Z,4.90
2022-12-27T10:57:27.856Z,4.80
2022-12-27T11:00:20.987Z,4.40
2022-12-27T11:02:54.219Z,4.57
2022-12-27T11:05:36.077Z,4.60
2022-12-27T11:08:21.229Z,4.57
2022-12-27T11:10:51.154Z,7.70
2022-12-27T11:13:20.282Z,5.63
2022-12-27T11:15:59.065Z,5.40
2022-12-27T11:18:27.851Z,6.40
2022-12-27T11:20:58.513Z,6.03
2022-12-27T11:23:32.156Z,6.60
2022-12-27T11:26:04.513Z,4.67
2022-12-27T11:28:36.986Z,5.60
2022-12-27T11:31:08.302Z,5.23
2022-12-27T11:33:41.338Z,5.20
2022-12-27T11:36:12.733Z,5.33
2022-12-27T11:38:48.764Z,5.07
2022-12-27T11:41:27.701Z,5.00
2022-12-27T11:44:00.549Z,5.00
2022-12-27T11:46:32.408Z,5.60
2022-12-27T11:49:03.347Z,5.43
2022-12-27T11:51:54.535Z,5.20
2022-12-27T11:54:53.337Z,4.80
2022-12-27T11:57:34.848Z,4.97
2022-12-27T12:00:13.902Z,4.70
2022-12-27T12:02:58.240Z,4.13
2022-12-27T12:05:44.144Z,4.53
2022-12-27T12:08:25.241Z,4.60
2022-12-27T12:11:04.939Z,4.23
2022-12-27T12:14:04.065Z,4.13
2022-12-27T12:17:02.198Z,4.23
2022-12-27T12:19:49.802Z,4.00
2022-12-27T12:22:36.445Z,4.17
2022-12-27T12:25:40.570Z,3.73
2022-12-27T12:31:58.298Z,3.73
2022-12-27T12:34:43.831Z,3.90
2022-12-27T12:37:25.538Z,3.43
2022-12-27T12:40:09.268Z,3.80
2022-12-27T12:42:47.847Z,3.80
2022-12-27T12:45:34.208Z,3.10
2022-12-27T12:48:30.600Z,2.93
2022-12-27T12:51:18.855Z,2.73
2022-12-27T12:54:09.334Z,2.90
2022-12-27T12:57:08.063Z,2.93
2022-12-27T13:00:04.738Z,2.77
2022-12-27T13:03:12.808Z,2.90
2022-12-27T13:05:49.051Z,3.53
2022-12-27T13:08:27.113Z,3.07
2022-12-27T13:11:31.361Z,2.83
2022-12-27T13:14:20.802Z,2.43
2022-12-27T13:16:56.640Z,2.43
2022-12-27T13:19:51.322Z,2.70
2022-12-27T13:22:31.384Z,2.27
2022-12-27T13:25:12.287Z,2.17
2022-12-27T13:27:46.934Z,2.20
2022-12-27T13:30:21.433Z,2.50
2022-12-27T13:33:17.847Z,2.93
2022-12-27T13:36:07.067Z,2.20
2022-12-27T13:38:52.093Z,2.27
2022-12-27T13:41:31.162Z,2.70
2022-12-27T13:44:22.949Z,2.47
2022-12-27T13:47:14.938Z,2.30
2022-12-27T13:50:06.163Z,2.40
2022-12-27T13:52:55.932Z,2.93
2022-12-27T13:55:50.990Z,2.03
2022-12-27T13:58:35.365Z,2.50
2022-12-27T14:01:16.965Z,1.97
2022-12-27T14:03:56.698Z,2.10
2022-12-27T14:07:04.715Z,2.27
2022-12-27T14:10:07.149Z,2.40
2022-12-27T14:12:59.535Z,2.23
2022-12-27T14:15:40.217Z,2.33
2022-12-27T14:18:38.017Z,2.40
2022-12-27T14:21:17.354Z,2.30
2022-12-27T14:24:11.731Z,2.90
2022-12-27T14:27:12.280Z,2.13
2022-12-27T14:30:23.108Z,2.93
2022-12-27T14:33:30.731Z,3.43
2022-12-27T14:36:40.889Z,2.77
2022-12-27T14:39:48.244Z,4.40
2022-12-27T14:42:48.488Z,4.40
2022-12-27T14:45:44.654Z,4.47
2022-12-27T14:48:50.453Z,3.60
2022-12-27T14:52:12.590Z,4.00
2022-12-27T14:55:03.692Z,4.30
2022-12-27T14:57:41.880Z,3.30
2022-12-27T15:00:18.493Z,3.13
2022-12-27T15:03:06.581Z,3.13
2022-12-27T15:06:02.392Z,3.53
2022-12-27T15:08:43.971Z,4.80
2022-12-27T15:11:40.614Z,3.93
2022-12-27T15:14:23.325Z,4.63
2022-12-27T15:16:59.004Z,3.60
2022-12-27T15:19:45.063Z,3.23
2022-12-27T15:22:24.715Z,4.00
2022-12-27T15:25:05.552Z,3.27
2022-12-27T15:27:39.886Z,3.53
2022-12-27T15:30:23.296Z,3.20
2022-12-27T15:33:00.381Z,3.90
